createdAt,value
2022-10-17T00:00:50.723Z,97.16
2022-10-17T00:03:19.027Z,97.18
2022-10-17T00:05:47.924Z,97.37
2022-10-17T00:08:17.426Z,97.46
2022-10-17T00:10:46.881Z,97.29
2022-10-17T00:13:14.687Z,97.36
2022-10-17T00:15:44.082Z,97.62
2022-10-17T00:18:12.201Z,97.96
2022-10-17T00:20:40.071Z,97.95
2022-10-17T00:23:08.014Z,98.18
2022-10-17T00:25:36.941Z,98.09
2022-10-17T00:28:06.303Z,98.30
2022-10-17T00:30:34.155Z,98.30
2022-10-17T00:33:02.204Z,98.74
2022-10-17T00:35:30.205Z,98.95
2022-10-17T00:37:58.047Z,98.85
2022-10-17T00:40:26.383Z,98.85
2022-10-17T00:42:54.416Z,99.13
2022-10-17T00:45:25.951Z,99.14
2022-10-17T00:47:56.937Z,99.18
2022-10-17T00:50:25.436Z,99.32
2022-10-17T00:52:54.144Z,99.34
2022-10-17T00:55:24.231Z,99.33
2022-10-17T00:57:52.767Z,99.45
2022-10-17T01:00:20.724Z,99.57
2022-10-17T01:02:50.293Z,99.46
2022-10-17T01:05:19.256Z,99.58
2022-10-17T01:07:48.137Z,99.54
2022-10-17T01:10:16.482Z,99.31
2022-10-17T01:12:49.681Z,99.51
2022-10-17T01:15:23.533Z,99.32
2022-10-17T01:18:00.317Z,99.65
2022-10-17T01:20:49.079Z,99.59
2022-10-17T01:23:32.935Z,99.66
2022-10-17T01:26:05.762Z,99.81
2022-10-17T01:31:13.741Z,99.73
2022-10-17T01:33:51.542Z,99.76
2022-10-17T01:36:25.949Z,99.83
2022-10-17T01:38:58.536Z,99.82
2022-10-17T01:41:32.060Z,99.98
2022-10-17T01:44:03.346Z,100.00
2022-10-17T01:46:34.799Z,99.99
2022-10-17T01:49:05.076Z,100.00
2022-10-17T01:51:35.586Z,99.85
2022-10-17T01:54:05.454Z,99.98
2022-10-17T01:56:35.146Z,100.00
2022-10-17T01:59:05.858Z,100.00
2022-10-17T02:01:37.455Z,100.00
2022-10-17T02:04:06.509Z,100.00
2022-10-17T02:06:35.621Z,100.00
2022-10-17T02:09:16.722Z,100.00
2022-10-17T02:11:46.323Z,100.00
2022-10-17T02:14:21.265Z,100.00
2022-10-17T02:16:54.075Z,100.00
2022-10-17T02:19:33.267Z,100.00
2022-10-17T02:22:06.845Z,100.00
2022-10-17T02:24:40.665Z,100.00
2022-10-17T02:27:12.923Z,100.00
2022-10-17T02:29:47.611Z,100.00
2022-10-17T02:34:56.359Z,99.63
2022-10-17T02:37:27.553Z,99.33
2022-10-17T02:39:56.907Z,99.65
2022-10-17T02:42:25.593Z,99.69
2022-10-17T02:44:54.722Z,99.93
2022-10-17T02:47:26.393Z,100.00
2022-10-17T02:49:56.803Z,99.82
2022-10-17T02:52:29.378Z,99.69
2022-10-17T02:55:00.132Z,99.66
2022-10-17T02:57:30.957Z,99.72
2022-10-17T02:59:59.846Z,99.56
2022-10-17T03:02:29.416Z,99.78
2022-10-17T03:04:57.659Z,99.52
2022-10-17T03:07:25.781Z,99.83
2022-10-17T03:09:53.587Z,99.94
2022-10-17T03:12:21.464Z,99.90
2022-10-17T03:14:49.370Z,99.81
2022-10-17T03:17:17.197Z,99.76
2022-10-17T03:19:46.653Z,99.61
2022-10-17T03:22:14.920Z,99.58
2022-10-17T03:24:42.902Z,99.76
2022-10-17T03:27:10.721Z,99.78
2022-10-17T03:29:39.174Z,99.47
2022-10-17T03:32:08.010Z,99.56
2022-10-17T03:34:36.159Z,99.55
2022-10-17T03:37:05.361Z,99.51
2022-10-17T03:39:33.182Z,99.37
2022-10-17T03:42:01.057Z,99.29
2022-10-17T03:44:29.069Z,99.41
2022-10-17T03:46:56.883Z,99.51
2022-10-17T03:49:24.709Z,99.64
2022-10-17T03:51:52.564Z,99.55
2022-10-17T03:54:21.732Z,99.31
2022-10-17T03:56:49.800Z,99.69
2022-10-17T03:59:19.190Z,99.63
2022-10-17T04:01:47.018Z,99.60
2022-10-17T04:04:15.007Z,99.84
2022-10-17T04:06:42.856Z,99.91
2022-10-17T04:09:11.532Z,99.54
2022-10-17T04:11:40.700Z,99.67
2022-10-17T04:14:08.528Z,99.94
2022-10-17T04:16:36.366Z,99.92
2022-10-17T04:19:04.225Z,100.00
2022-10-17T04:21:32.371Z,100.00
2022-10-17T04:24:01.275Z,99.97
2022-10-17T04:26:29.311Z,99.61
2022-10-17T04:29:02.827Z,99.96
2022-10-17T04:31:30.737Z,99.69
2022-10-17T04:33:58.583Z,99.95
2022-10-17T04:36:26.530Z,99.70
2022-10-17T04:38:54.434Z,99.77
2022-10-17T04:41:22.396Z,99.84
2022-10-17T04:43:51.454Z,99.91
2022-10-17T04:46:20.756Z,100.00
2022-10-17T04:48:48.619Z,100.00
2022-10-17T04:51:19.650Z,100.00
2022-10-17T04:53:50.070Z,100.00
2022-10-17T04:56:18.625Z,100.00
2022-10-17T04:58:47.261Z,100.00
2022-10-17T05:01:16.326Z,100.00
2022-10-17T05:03:45.960Z,100.00
2022-10-17T05:06:15.207Z,100.00
2022-10-17T05:08:43.390Z,100.00
2022-10-17T05:11:16.767Z,100.00
2022-10-17T05:13:44.885Z,100.00
2022-10-17T05:16:12.754Z,100.00
2022-10-17T05:18:40.598Z,100.00
2022-10-17T05:21:09.848Z,100.00
2022-10-17T05:23:37.692Z,100.00
2022-10-17T05:26:05.939Z,100.00
2022-10-17T05:28:34.482Z,100.00
2022-10-17T05:31:03.631Z,100.00
2022-10-17T05:33:31.551Z,100.00
2022-10-17T05:35:59.783Z,100.00
2022-10-17T05:38:31.503Z,100.00
2022-10-17T05:41:05.286Z,100.00
2022-10-17T05:43:34.043Z,100.00
2022-10-17T05:46:03.781Z,100.00
2022-10-17T05:48:31.625Z,100.00
2022-10-17T05:51:00.695Z,100.00
2022-10-17T05:53:33.010Z,100.00
2022-10-17T05:56:01.886Z,100.00
2022-10-17T05:58:49.302Z,100.00
2022-10-17T06:01:18.569Z,100.00
2022-10-17T06:03:46.365Z,100.00
2022-10-17T06:06:15.103Z,100.00
2022-10-17T06:08:44.858Z,100.00
2022-10-17T06:11:12.985Z,100.00
2022-10-17T06:13:41.375Z,100.00
2022-10-17T06:16:09.412Z,100.00
2022-10-17T06:18:37.305Z,100.00
2022-10-17T06:21:05.667Z,100.00
2022-10-17T06:23:33.846Z,100.00
2022-10-17T06:26:04.424Z,100.00
2022-10-17T06:28:32.338Z,100.00
2022-10-17T06:31:00.277Z,100.00
2022-10-17T06:33:28.161Z,100.00
2022-10-17T06:35:56.694Z,100.00
2022-10-17T06:38:25.311Z,100.00
2022-10-17T06:40:53.976Z,100.00
2022-10-17T06:43:27.857Z,100.00
2022-10-17T06:48:24.918Z,100.00
2022-10-17T06:50:52.765Z,100.00
2022-10-17T06:53:20.635Z,100.00
2022-10-17T06:55:52.208Z,100.00
2022-10-17T06:58:20.329Z,100.00
2022-10-17T07:00:49.640Z,100.00
2022-10-17T07:03:17.880Z,100.00
2022-10-17T07:05:52.380Z,100.00
2022-10-17T07:08:32.563Z,100.00
2022-10-17T07:11:09.218Z,100.00
2022-10-17T07:13:39.275Z,100.00
2022-10-17T07:16:09.549Z,100.00
2022-10-17T07:18:37.719Z,99.48
2022-10-17T07:21:06.180Z,94.34
2022-10-17T07:23:36.744Z,85.29
2022-10-17T07:26:09.227Z,77.46
2022-10-17T07:28:37.871Z,75.46
2022-10-17T07:31:06.600Z,70.48
2022-10-17T07:33:36.235Z,67.67
2022-10-17T07:36:08.252Z,66.69
2022-10-17T07:38:39.839Z,62.90
2022-10-17T07:41:08.829Z,61.34
2022-10-17T07:43:37.604Z,60.58
2022-10-17T07:46:06.334Z,59.95
2022-10-17T07:48:34.322Z,57.65
2022-10-17T07:51:09.066Z,54.46
2022-10-17T07:53:37.669Z,50.10
2022-10-17T07:56:06.879Z,47.94
2022-10-17T07:58:37.077Z,47.69
2022-10-17T08:01:07.473Z,48.42
2022-10-17T08:03:37.585Z,51.50
2022-10-17T08:06:06.933Z,53.64
2022-10-17T08:08:34.862Z,54.50
2022-10-17T08:11:03.640Z,54.93
2022-10-17T08:13:31.877Z,56.19
2022-10-17T08:16:00.909Z,56.95
2022-10-17T08:18:28.770Z,52.27
2022-10-17T08:20:59.439Z,48.54
2022-10-17T08:23:30.229Z,46.82
2022-10-17T08:25:59.880Z,46.22
2022-10-17T08:28:27.973Z,44.97
2022-10-17T08:31:05.465Z,43.00
2022-10-17T08:33:34.143Z,42.41
2022-10-17T08:36:02.519Z,40.80
2022-10-17T08:38:35.425Z,39.18
2022-10-17T08:41:06.894Z,39.75
2022-10-17T08:43:41.741Z,43.03
2022-10-17T08:46:10.700Z,40.85
2022-10-17T08:48:44.026Z,42.49
2022-10-17T08:51:17.530Z,43.04
2022-10-17T08:53:50.194Z,42.80
2022-10-17T08:56:30.313Z,44.34
2022-10-17T08:59:12.498Z,43.96
2022-10-17T09:01:49.115Z,44.06
2022-10-17T09:04:36.370Z,45.84
2022-10-17T09:07:07.164Z,46.01
2022-10-17T09:09:41.477Z,47.61
2022-10-17T09:12:18.173Z,48.88
2022-10-17T09:14:56.820Z,49.93
2022-10-17T09:17:32.916Z,48.18
2022-10-17T09:20:04.638Z,48.43
2022-10-17T09:22:36.700Z,46.13
2022-10-17T09:25:07.758Z,42.99
2022-10-17T09:27:37.703Z,40.68
2022-10-17T09:30:40.165Z,43.86
2022-10-17T09:33:23.107Z,45.40
2022-10-17T09:36:04.092Z,40.07
2022-10-17T09:38:37.618Z,37.60
2022-10-17T09:41:25.573Z,35.51
2022-10-17T09:43:57.254Z,37.07
2022-10-17T09:46:27.467Z,39.05
2022-10-17T09:48:59.180Z,43.28
2022-10-17T09:51:27.667Z,47.04
2022-10-17T09:53:57.830Z,49.29
2022-10-17T09:56:27.028Z,51.90
2022-10-17T09:58:57.766Z,54.49
2022-10-17T10:01:28.171Z,55.27
2022-10-17T10:04:10.040Z,55.51
2022-10-17T10:06:43.977Z,56.35
2022-10-17T10:09:22.547Z,57.10
2022-10-17T10:11:53.543Z,57.48
2022-10-17T10:14:22.951Z,57.68
2022-10-17T10:16:53.486Z,58.60
2022-10-17T10:19:23.209Z,59.07
2022-10-17T10:22:02.505Z,59.71
2022-10-17T10:24:31.415Z,60.23
2022-10-17T10:27:02.102Z,61.18
2022-10-17T10:29:46.112Z,61.16
2022-10-17T10:32:22.028Z,61.94
2022-10-17T10:34:51.704Z,61.98
2022-10-17T10:37:21.658Z,61.84
2022-10-17T10:39:58.790Z,62.59
2022-10-17T10:42:29.986Z,62.74
2022-10-17T10:45:04.083Z,62.37
2022-10-17T10:47:33.380Z,61.31
2022-10-17T10:50:19.841Z,60.26
2022-10-17T10:52:53.861Z,59.66
2022-10-17T10:55:26.663Z,59.11
2022-10-17T10:57:58.415Z,58.19
2022-10-17T11:00:27.800Z,57.67
2022-10-17T11:03:01.834Z,57.64
2022-10-17T11:05:37.805Z,51.41
2022-10-17T11:08:11.517Z,47.35
2022-10-17T11:10:44.360Z,48.36
2022-10-17T11:13:16.012Z,51.76
2022-10-17T11:15:48.158Z,54.38
2022-10-17T11:18:23.373Z,56.51
2022-10-17T11:20:53.784Z,58.19
2022-10-17T11:23:24.521Z,60.15
2022-10-17T11:25:54.542Z,60.62
2022-10-17T11:28:25.888Z,60.80
2022-10-17T11:30:57.205Z,61.28
2022-10-17T11:33:28.227Z,61.33
2022-10-17T11:35:59.017Z,61.14
2022-10-17T11:38:31.167Z,61.63
2022-10-17T11:41:00.562Z,61.81
2022-10-17T11:43:31.986Z,61.96
2022-10-17T11:46:16.351Z,62.57
2022-10-17T11:48:46.456Z,62.59
2022-10-17T11:54:05.620Z,61.59
2022-10-17T11:56:42.688Z,61.50
2022-10-17T11:59:28.870Z,61.48
2022-10-17T12:02:02.920Z,61.07
2022-10-17T12:04:38.123Z,60.96
2022-10-17T12:07:11.009Z,61.40
2022-10-17T12:09:43.350Z,61.09
2022-10-17T12:12:11.403Z,60.84
2022-10-17T12:14:43.234Z,61.01
2022-10-17T12:17:34.696Z,61.47
2022-10-17T12:20:27.305Z,61.13
2022-10-17T12:22:56.334Z,62.15
2022-10-17T12:25:26.165Z,62.04
2022-10-17T12:28:04.007Z,63.44
2022-10-17T12:30:32.232Z,64.02
2022-10-17T12:33:09.144Z,64.61
2022-10-17T12:35:38.583Z,64.72
2022-10-17T12:38:21.488Z,65.57
2022-10-17T12:40:53.779Z,66.14
2022-10-17T12:43:42.724Z,66.61
2022-10-17T12:46:12.776Z,67.29
2022-10-17T12:49:04.607Z,67.62
2022-10-17T12:52:05.399Z,68.45
2022-10-17T12:54:47.515Z,69.12
2022-10-17T12:57:26.767Z,68.96
2022-10-17T12:59:57.960Z,69.63
2022-10-17T13:02:29.034Z,69.93
2022-10-17T13:05:04.373Z,71.05
2022-10-17T13:07:34.608Z,72.89
2022-10-17T13:10:05.154Z,73.89
2022-10-17T13:12:38.898Z,74.07
2022-10-17T13:15:09.346Z,74.60
2022-10-17T13:17:40.598Z,74.73
2022-10-17T13:20:25.571Z,74.79
2022-10-17T13:22:58.161Z,74.18
2022-10-17T13:25:27.019Z,74.52
2022-10-17T13:28:05.439Z,74.92
2022-10-17T13:30:35.383Z,75.08
2022-10-17T13:33:04.014Z,75.30
2022-10-17T13:35:58.783Z,75.94
2022-10-17T13:38:25.414Z,75.70
2022-10-17T13:41:01.375Z,76.10
2022-10-17T13:43:34.029Z,76.96
2022-10-17T13:46:25.636Z,77.35
2022-10-17T13:48:53.533Z,77.47
2022-10-17T13:51:23.132Z,78.72
2022-10-17T13:53:51.001Z,79.02
2022-10-17T13:56:29.856Z,78.48
2022-10-17T13:58:59.865Z,78.53
2022-10-17T14:01:28.766Z,78.12
2022-10-17T14:04:08.516Z,78.29
2022-10-17T14:06:45.022Z,77.94
2022-10-17T14:09:21.881Z,77.68
2022-10-17T14:11:58.239Z,77.26
2022-10-17T14:14:27.094Z,77.00
2022-10-17T14:16:55.273Z,76.62
2022-10-17T14:19:25.965Z,75.77
2022-10-17T14:21:56.954Z,74.56
2022-10-17T14:24:29.242Z,74.11
2022-10-17T14:26:58.898Z,73.40
2022-10-17T14:29:28.300Z,72.36
2022-10-17T14:32:00.860Z,72.15
2022-10-17T14:34:30.900Z,71.71
2022-10-17T14:37:00.168Z,72.15
2022-10-17T14:39:29.019Z,72.07
2022-10-17T14:42:00.751Z,72.52
2022-10-17T14:44:32.643Z,73.06
2022-10-17T14:47:18.366Z,73.37
2022-10-17T14:49:51.120Z,73.99
2022-10-17T14:52:28.252Z,74.18
2022-10-17T14:54:56.743Z,74.34
2022-10-17T14:57:29.336Z,73.98
2022-10-17T14:59:57.861Z,73.65
2022-10-17T15:02:25.786Z,73.55
2022-10-17T15:04:53.705Z,73.86
2022-10-17T15:07:22.124Z,74.49
2022-10-17T15:09:52.133Z,74.36
2022-10-17T15:12:21.933Z,74.12
2022-10-17T15:14:50.674Z,74.31
2022-10-17T15:17:20.849Z,74.17
2022-10-17T15:19:50.417Z,74.51
2022-10-17T15:22:18.676Z,74.18
2022-10-17T15:24:47.099Z,75.19
2022-10-17T15:27:17.618Z,76.22
2022-10-17T15:29:45.604Z,77.14
2022-10-17T15:32:13.511Z,78.00
2022-10-17T15:34:41.640Z,77.97
2022-10-17T15:37:16.946Z,78.16
2022-10-17T15:39:45.752Z,78.76
2022-10-17T15:42:13.740Z,78.48
2022-10-17T15:44:44.436Z,78.43
2022-10-17T15:47:19.458Z,78.54
2022-10-17T15:49:47.538Z,79.09
2022-10-17T15:52:15.433Z,79.38
2022-10-17T15:54:43.346Z,79.96
2022-10-17T15:57:16.811Z,80.50
2022-10-17T15:59:47.127Z,80.45
2022-10-17T16:02:15.625Z,80.84
2022-10-17T16:04:43.744Z,81.41
2022-10-17T16:07:11.761Z,81.73
2022-10-17T16:09:40.012Z,82.25
2022-10-17T16:12:13.241Z,82.49
2022-10-17T16:14:41.349Z,82.86
2022-10-17T16:17:13.783Z,83.09
2022-10-17T16:19:41.905Z,83.78
2022-10-17T16:22:12.871Z,83.94
2022-10-17T16:24:40.850Z,84.17
2022-10-17T16:27:09.098Z,85.08
2022-10-17T16:29:37.176Z,85.85
2022-10-17T16:32:05.140Z,86.13
2022-10-17T16:34:34.447Z,86.43
2022-10-17T16:37:02.470Z,86.77
2022-10-17T16:39:30.398Z,86.70
2022-10-17T16:41:58.771Z,87.09
2022-10-17T16:44:26.773Z,87.26
2022-10-17T16:46:54.790Z,87.56
2022-10-17T16:49:22.743Z,87.64
2022-10-17T16:51:52.086Z,87.94
2022-10-17T16:54:20.134Z,87.77
2022-10-17T16:56:49.044Z,88.16
2022-10-17T16:59:17.101Z,88.40
2022-10-17T17:01:45.096Z,88.27
2022-10-17T17:04:13.017Z,88.62
2022-10-17T17:06:41.418Z,88.67
2022-10-17T17:09:10.891Z,87.79
2022-10-17T17:11:38.967Z,87.98
2022-10-17T17:14:10.009Z,87.69
2022-10-17T17:16:38.129Z,87.90
2022-10-17T17:19:08.214Z,87.90
2022-10-17T17:21:36.705Z,87.94
2022-10-17T17:24:05.127Z,88.38
2022-10-17T17:26:36.024Z,88.98
2022-10-17T17:29:04.350Z,89.16
2022-10-17T17:31:33.416Z,89.54
2022-10-17T17:34:01.654Z,89.97
2022-10-17T17:36:30.169Z,90.27
2022-10-17T17:38:58.978Z,90.39
2022-10-17T17:41:27.349Z,90.29
2022-10-17T17:43:57.031Z,90.47
2022-10-17T17:46:25.466Z,90.21
2022-10-17T17:48:54.338Z,89.76
2022-10-17T17:51:29.037Z,89.59
2022-10-17T17:53:58.394Z,89.39
2022-10-17T17:56:27.164Z,89.22
2022-10-17T17:58:56.110Z,89.71
2022-10-17T18:01:26.200Z,89.85
2022-10-17T18:03:54.801Z,90.05
2022-10-17T18:06:23.353Z,90.17
2022-10-17T18:08:55.247Z,90.30
2022-10-17T18:11:23.273Z,90.36
2022-10-17T18:13:54.248Z,90.66
2022-10-17T18:16:22.164Z,90.42
2022-10-17T18:18:51.516Z,90.49
2022-10-17T18:21:19.353Z,90.51
2022-10-17T18:23:48.089Z,90.33
2022-10-17T18:26:16.480Z,90.66
2022-10-17T18:28:45.315Z,90.77
2022-10-17T18:31:15.316Z,90.89
2022-10-17T18:33:44.698Z,91.05
2022-10-17T18:36:14.967Z,91.20
2022-10-17T18:38:43.303Z,91.38
2022-10-17T18:41:12.397Z,91.49
2022-10-17T18:43:41.078Z,91.69
2022-10-17T18:46:13.910Z,91.59
2022-10-17T18:48:44.299Z,91.31
2022-10-17T18:51:12.615Z,91.29
2022-10-17T18:53:42.246Z,91.47
2022-10-17T18:56:10.473Z,91.60
2022-10-17T18:58:38.989Z,91.64
2022-10-17T19:01:07.820Z,92.01
2022-10-17T19:03:35.907Z,92.29
2022-10-17T19:06:03.963Z,92.17
2022-10-17T19:08:31.813Z,92.03
2022-10-17T19:11:06.400Z,92.37
2022-10-17T19:13:34.522Z,92.36
2022-10-17T19:16:05.462Z,92.68
2022-10-17T19:18:33.424Z,92.76
2022-10-17T19:21:04.352Z,92.87
2022-10-17T19:23:32.356Z,93.02
2022-10-17T19:26:02.491Z,92.86
2022-10-17T19:28:31.799Z,92.95
2022-10-17T19:30:59.699Z,92.79
2022-10-17T19:35:57.217Z,92.36
2022-10-17T19:38:25.077Z,92.50
2022-10-17T19:40:53.054Z,92.57
2022-10-17T19:43:21.222Z,92.38
2022-10-17T19:45:56.521Z,92.51
2022-10-17T19:48:26.672Z,92.51
2022-10-17T19:50:55.490Z,92.77
2022-10-17T19:53:24.077Z,92.81
2022-10-17T19:55:52.127Z,93.04
2022-10-17T19:58:20.639Z,93.21
2022-10-17T20:00:48.645Z,93.47
2022-10-17T20:03:18.255Z,93.85
2022-10-17T20:05:46.354Z,93.98
2022-10-17T20:08:14.369Z,93.82
2022-10-17T20:10:42.396Z,94.27
2022-10-17T20:13:10.813Z,94.24
2022-10-17T20:15:39.178Z,94.31
2022-10-17T20:18:07.848Z,94.20
2022-10-17T20:20:37.139Z,94.24
2022-10-17T20:23:05.620Z,94.16
2022-10-17T20:25:34.829Z,94.03
2022-10-17T20:28:02.828Z,94.05
2022-10-17T20:30:30.850Z,93.79
2022-10-17T20:32:58.863Z,93.77
2022-10-17T20:35:27.129Z,93.89
2022-10-17T20:37:56.489Z,93.96
2022-10-17T20:40:39.699Z,93.92
2022-10-17T20:43:08.335Z,93.75
2022-10-17T20:45:50.829Z,93.38
2022-10-17T20:48:20.169Z,93.40
2022-10-17T20:50:48.770Z,93.41
2022-10-17T20:53:35.948Z,93.37
2022-10-17T20:56:06.058Z,92.95
2022-10-17T20:58:33.979Z,92.60
2022-10-17T21:01:05.624Z,92.18
2022-10-17T21:03:35.539Z,92.15
2022-10-17T21:06:03.416Z,91.80
2022-10-17T21:08:32.611Z,91.44
2022-10-17T21:11:07.877Z,91.50
2022-10-17T21:13:36.056Z,91.23
2022-10-17T21:16:08.136Z,91.13
2022-10-17T21:18:36.302Z,91.44
2022-10-17T21:21:07.894Z,91.33
2022-10-17T21:23:37.518Z,91.92
2022-10-17T21:26:07.096Z,91.63
2022-10-17T21:28:35.550Z,91.55
2022-10-17T21:31:10.837Z,91.51
2022-10-17T21:33:38.979Z,91.61
2022-10-17T21:36:07.142Z,92.02
2022-10-17T21:38:37.427Z,92.22
2022-10-17T21:41:05.823Z,92.51
2022-10-17T21:43:34.127Z,92.31
2022-10-17T21:46:02.936Z,92.31
2022-10-17T21:48:30.875Z,92.58
2022-10-17T21:51:00.069Z,92.92
2022-10-17T21:53:27.925Z,92.80
2022-10-17T21:55:59.374Z,93.16
2022-10-17T21:58:27.360Z,93.29
2022-10-17T22:00:55.597Z,93.41
2022-10-17T22:03:23.568Z,93.59
2022-10-17T22:06:06.909Z,93.68
2022-10-17T22:08:42.459Z,93.38
2022-10-17T22:11:12.762Z,93.30
2022-10-17T22:13:40.891Z,92.84
2022-10-17T22:16:10.165Z,93.01
2022-10-17T22:18:38.367Z,93.22
2022-10-17T22:21:07.290Z,93.06
2022-10-17T22:23:35.816Z,93.18
2022-10-17T22:26:03.845Z,93.53
2022-10-17T22:28:33.352Z,93.75
2022-10-17T22:31:01.216Z,93.89
2022-10-17T22:33:29.454Z,93.80
2022-10-17T22:35:57.285Z,93.88
2022-10-17T22:38:25.118Z,94.10
2022-10-17T22:40:52.951Z,94.58
2022-10-17T22:43:20.823Z,94.58
2022-10-17T22:45:54.353Z,94.55
2022-10-17T22:48:22.684Z,94.75
2022-10-17T22:50:50.694Z,94.77
2022-10-17T22:53:23.509Z,94.89
2022-10-17T22:55:51.963Z,94.70
2022-10-17T22:58:19.753Z,94.85
2022-10-17T23:00:47.581Z,95.03
2022-10-17T23:03:17.151Z,95.32
2022-10-17T23:05:45.342Z,95.48
2022-10-17T23:08:13.781Z,95.51
2022-10-17T23:10:42.004Z,95.45
2022-10-17T23:13:09.903Z,95.28
2022-10-17T23:15:37.683Z,95.10
2022-10-17T23:18:05.527Z,94.93
2022-10-17T23:20:34.844Z,95.00
2022-10-17T23:23:02.703Z,94.65
2022-10-17T23:25:30.864Z,94.58
2022-10-17T23:27:58.647Z,94.40
2022-10-17T23:30:26.729Z,94.51
2022-10-17T23:32:54.780Z,94.43
2022-10-17T23:35:22.569Z,94.49
2022-10-17T23:37:51.711Z,94.47
2022-10-17T23:40:19.557Z,94.38
2022-10-17T23:42:47.368Z,94.38
2022-10-17T23:45:15.426Z,94.34
2022-10-17T23:47:43.453Z,94.28
2022-10-17T23:50:11.264Z,94.09
2022-10-17T23:52:39.056Z,93.86
2022-10-17T23:55:09.464Z,93.53
2022-10-17T23:57:37.462Z,93.63
